LGSA/CHQ METAR and TAF weather

Enter ICAO airport designator
Station Type Date Time Source
LGSA METAR 2021/01/20 23:20 UTC NOAA

LGSA 202320Z 27006KT 9999 BKN030 11/09 Q1028


Station Type Date Time Source
LGSA Decoded METAR 2021/01/20 23:20 UTC NOAA

Souda Airport , Greece (LGSA) 35-29N 024-07E 151M
Jan 20, 2021 - 06:20 PM EST / 2021.01.20 2320 UTC
Wind: from the W (270 degrees) at 7 MPH (6 KT):0
Visibility: greater than 7 mile(s):0
Sky conditions: mostly cloudy
Temperature: 51 F (11 C)
Dew Point: 48 F (9 C)
Relative Humidity: 87%
Pressure (altimeter): 30.36 in. Hg (1028 hPa)
ob: LGSA 202320Z 27006KT 9999 BKN030 11/09 Q1028
cycle: 23

Station Type Date Time Source
LGSA TAF 2021/01/20 18:16 UTC NOAA

TAF LGSA 201700Z 2018/2118 28015KT 9999 SCT025
BECMG 2116/2118 VRB05KT

Example: see airport list